Time;durP1;ratioP1;P1;durP2;ratioP2;P2;SDS_P1;SDS_P2;PMS_P1;PMS_P2;Temp;Humidity;BMP_temperature;BMP_pressure;BME280_temperature;BME280_humidity;BME280_pressure;Samples;Min_cycle;Max_cycle;Signal;HPM_P1;HPM_P2
2023/05/22 00:01:00;;;;;;;23.05;16.48;;;;;;;;;;5048859;28;20170;-70
2023/05/22 00:03:28;;;;;;;22.45;18.77;;;;;;;;;;5047664;28;20475;-69
2023/05/22 00:05:57;;;;;;;27.13;18.75;;;;;;;;;;5048708;28;20477;-69
2023/05/22 00:08:27;;;;;;;22.67;19.00;;;;;;;;;;5045521;28;20032;-69
2023/05/22 00:10:54;;;;;;;25.33;19.25;;;;;;;;;;5048260;28;20036;-69
2023/05/22 00:13:20;;;;;;;26.77;18.80;;;;;;;;;;5049284;28;20037;-69
2023/05/22 00:15:46;;;;;;;27.67;18.70;;;;;;;;;;5053425;28;20049;-69
2023/05/22 00:18:12;;;;;;;22.35;19.58;;;;;;;;;;5047038;28;20163;-70
2023/05/22 00:20:39;;;;;;;28.55;19.23;;;;;;;;;;5048177;28;20044;-69
2023/05/22 00:23:11;;;;;;;25.15;19.17;;;;;;;;;;5040936;28;20076;-69
2023/05/22 00:25:37;;;;;;;26.88;19.23;;;;;;;;;;5047810;28;20029;-69
2023/05/22 00:28:04;;;;;;;25.90;18.70;;;;;;;;;;5045995;28;20132;-69
2023/05/22 00:30:30;;;;;;;25.38;19.27;;;;;;;;;;5049616;28;20032;-69
2023/05/22 00:32:57;;;;;;;25.77;19.25;;;;;;;;;;5047852;28;20045;-69
2023/05/22 00:35:23;;;;;;;24.40;18.05;;;;;;;;;;5049957;28;20510;-69
2023/05/22 00:37:49;;;;;;;22.15;17.75;;;;;;;;;;5041573;28;20119;-69
2023/05/22 00:40:15;;;;;;;27.25;20.23;;;;;;;;;;5048791;28;20072;-70
2023/05/22 00:42:44;;;;;;;27.58;21.42;;;;;;;;;;5046952;28;20526;-69
2023/05/22 00:45:11;;;;;;;25.55;20.50;;;;;;;;;;5048735;28;20037;-69
2023/05/22 00:47:37;;;;;;;24.67;19.10;;;;;;;;;;5049843;28;20267;-69
2023/05/22 00:50:04;;;;;;;27.30;19.17;;;;;;;;;;5045751;28;20032;-69
2023/05/22 00:52:31;;;;;;;25.77;20.80;;;;;;;;;;5049246;28;20115;-69
2023/05/22 00:54:58;;;;;;;25.63;19.92;;;;;;;;;;5048918;28;20044;-69
2023/05/22 00:57:24;;;;;;;25.73;19.75;;;;;;;;;;5047694;28;20459;-69
2023/05/22 00:59:51;;;;;;;27.80;21.85;;;;;;;;;;5050471;28;20064;-69
2023/05/22 01:02:17;;;;;;;24.75;20.00;;;;;;;;;;5047230;28;20088;-69
2023/05/22 01:04:47;;;;;;;25.65;20.70;;;;;;;;;;5046772;28;20036;-69
2023/05/22 01:07:16;;;;;;;24.42;18.75;;;;;;;;;;5047257;28;20029;-69
2023/05/22 01:09:43;;;;;;;26.58;19.40;;;;;;;;;;5044831;28;20044;-69
2023/05/22 01:12:15;;;;;;;25.27;18.75;;;;;;;;;;5044966;28;20072;-68
2023/05/22 01:15:08;;;;;;;27.70;20.42;;;;;;;;;;5047324;28;20171;-69
2023/05/22 01:17:52;;;;;;;24.00;19.98;;;;;;;;;;5031168;28;20517;-69
2023/05/22 01:20:26;;;;;;;24.35;20.08;;;;;;;;;;5047576;28;20086;-69
2023/05/22 01:22:57;;;;;;;24.50;21.00;;;;;;;;;;5044635;28;20045;-69
2023/05/22 01:25:25;;;;;;;27.60;18.65;;;;;;;;;;5050826;28;20052;-69
2023/05/22 01:28:04;;;;;;;25.63;20.85;;;;;;;;;;5054510;28;20119;-69
2023/05/22 01:30:53;;;;;;;27.17;19.75;;;;;;;;;;5054533;28;20041;-70
2023/05/22 01:33:24;;;;;;;30.35;21.90;;;;;;;;;;5048008;28;20043;-70
2023/05/22 01:35:54;;;;;;;26.27;20.42;;;;;;;;;;5051395;28;20041;-69
2023/05/22 01:38:21;;;;;;;26.92;19.42;;;;;;;;;;5052290;28;20494;-70
2023/05/22 01:40:48;;;;;;;26.35;20.67;;;;;;;;;;5054360;28;20098;-70
2023/05/22 01:43:15;;;;;;;30.85;23.40;;;;;;;;;;5050445;28;20049;-70
2023/05/22 01:45:41;;;;;;;28.90;22.75;;;;;;;;;;5054375;28;20088;-70
2023/05/22 01:48:07;;;;;;;31.70;22.58;;;;;;;;;;5052172;28;20394;-70
2023/05/22 01:50:33;;;;;;;25.10;19.52;;;;;;;;;;5054602;28;20120;-70
2023/05/22 01:53:06;;;;;;;25.52;22.10;;;;;;;;;;5051082;28;20103;-70
2023/05/22 01:55:39;;;;;;;25.25;21.65;;;;;;;;;;5052533;28;20040;-70
2023/05/22 01:58:17;;;;;;;28.75;23.67;;;;;;;;;;5043255;28;20498;-70
2023/05/22 02:00:45;;;;;;;26.35;22.13;;;;;;;;;;5044550;28;20067;-70
2023/05/22 02:03:19;;;;;;;29.70;23.23;;;;;;;;;;5051298;28;20045;-70
2023/05/22 02:05:46;;;;;;;31.67;22.52;;;;;;;;;;5049197;28;20044;-70
2023/05/22 02:08:13;;;;;;;28.20;24.58;;;;;;;;;;5045723;28;20036;-70
2023/05/22 02:10:40;;;;;;;30.05;21.95;;;;;;;;;;5051116;28;20145;-70
2023/05/22 02:13:06;;;;;;;27.23;23.52;;;;;;;;;;5042012;28;20106;-70
2023/05/22 02:15:32;;;;;;;32.00;25.40;;;;;;;;;;5047984;28;20052;-70
2023/05/22 02:18:01;;;;;;;30.20;25.10;;;;;;;;;;5044718;28;20073;-70
2023/05/22 02:20:29;;;;;;;31.65;23.50;;;;;;;;;;5033759;28;20295;-70
2023/05/22 02:22:55;;;;;;;29.25;24.27;;;;;;;;;;5050724;28;20073;-70
2023/05/22 02:25:21;;;;;;;29.20;23.38;;;;;;;;;;5049469;28;20041;-70
2023/05/22 02:27:48;;;;;;;30.05;23.83;;;;;;;;;;5047411;28;20108;-70
2023/05/22 02:30:15;;;;;;;33.88;24.60;;;;;;;;;;5046997;28;20056;-70
2023/05/22 02:32:41;;;;;;;24.10;21.50;;;;;;;;;;5049019;28;20044;-70
2023/05/22 02:35:08;;;;;;;29.33;22.48;;;;;;;;;;5042431;28;20045;-71
2023/05/22 02:37:35;;;;;;;29.45;22.83;;;;;;;;;;5045288;28;20550;-70
2023/05/22 02:40:01;;;;;;;27.67;24.48;;;;;;;;;;5050270;28;20041;-71
2023/05/22 02:42:27;;;;;;;28.92;22.13;;;;;;;;;;5049784;28;20340;-70
2023/05/22 02:44:53;;;;;;;28.73;22.80;;;;;;;;;;5049569;28;20114;-70
2023/05/22 02:47:19;;;;;;;29.83;23.17;;;;;;;;;;5050497;28;20025;-70
2023/05/22 02:49:45;;;;;;;36.67;23.10;;;;;;;;;;5049893;28;20040;-70
2023/05/22 02:52:12;;;;;;;29.75;23.92;;;;;;;;;;5051651;28;20069;-70
2023/05/22 02:54:38;;;;;;;29.73;23.42;;;;;;;;;;5053803;28;20044;-70
2023/05/22 02:57:04;;;;;;;28.10;23.02;;;;;;;;;;5052073;28;20098;-70
2023/05/22 02:59:31;;;;;;;32.17;24.50;;;;;;;;;;5050880;28;20051;-70
2023/05/22 03:01:57;;;;;;;28.00;22.80;;;;;;;;;;5055334;28;20037;-70
2023/05/22 03:04:23;;;;;;;29.92;23.83;;;;;;;;;;5044684;28;20128;-70
2023/05/22 03:06:50;;;;;;;27.00;21.25;;;;;;;;;;5048392;28;20069;-70
2023/05/22 03:09:16;;;;;;;31.98;25.48;;;;;;;;;;5058819;28;20291;-70
2023/05/22 03:11:42;;;;;;;34.50;27.70;;;;;;;;;;5050359;28;20091;-70
2023/05/22 03:14:08;;;;;;;30.48;22.55;;;;;;;;;;5052349;28;20086;-70
2023/05/22 03:16:35;;;;;;;30.50;24.20;;;;;;;;;;5046612;28;20192;-70
2023/05/22 03:19:11;;;;;;;32.92;24.88;;;;;;;;;;5024829;28;20041;-70
2023/05/22 03:21:37;;;;;;;28.83;24.33;;;;;;;;;;5046578;28;20088;-70
2023/05/22 03:24:04;;;;;;;27.48;21.67;;;;;;;;;;5030881;28;20045;-70
2023/05/22 03:26:30;;;;;;;29.25;22.45;;;;;;;;;;5045932;28;20049;-70
2023/05/22 03:28:56;;;;;;;32.65;24.25;;;;;;;;;;5045413;28;20033;-70
2023/05/22 03:31:28;;;;;;;40.67;22.27;;;;;;;;;;5055276;28;20025;-70
2023/05/22 03:33:54;;;;;;;31.48;23.48;;;;;;;;;;5047238;28;20051;-70
2023/05/22 03:36:22;;;;;;;31.65;23.98;;;;;;;;;;5047330;28;20485;-70
2023/05/22 03:38:48;;;;;;;29.02;23.80;;;;;;;;;;5057502;28;20511;-70
2023/05/22 03:41:14;;;;;;;31.30;23.90;;;;;;;;;;5049196;28;20423;-71
2023/05/22 03:43:40;;;;;;;35.33;22.52;;;;;;;;;;5052312;28;20068;-72
2023/05/22 03:46:09;;;;;;;28.27;23.85;;;;;;;;;;5052918;28;20064;-70
2023/05/22 03:48:36;;;;;;;29.50;23.10;;;;;;;;;;5043023;28;20040;-71
2023/05/22 03:51:05;;;;;;;32.78;24.15;;;;;;;;;;5050139;28;20521;-69
2023/05/22 03:53:34;;;;;;;28.92;24.05;;;;;;;;;;5045276;28;20045;-70
2023/05/22 03:56:06;;;;;;;26.08;22.02;;;;;;;;;;5046645;28;20056;-70
2023/05/22 03:58:32;;;;;;;26.67;23.95;;;;;;;;;;5049332;28;20116;-71
2023/05/22 04:00:59;;;;;;;29.20;22.05;;;;;;;;;;5046887;28;20037;-70
2023/05/22 04:03:26;;;;;;;33.35;23.30;;;;;;;;;;5043202;28;20044;-70
2023/05/22 04:05:52;;;;;;;33.15;23.90;;;;;;;;;;5048528;28;20507;-70
2023/05/22 04:08:19;;;;;;;29.75;21.75;;;;;;;;;;5044826;28;20028;-70
2023/05/22 04:10:45;;;;;;;28.63;22.65;;;;;;;;;;5040278;28;20116;-70
2023/05/22 04:13:12;;;;;;;31.00;23.88;;;;;;;;;;5051177;28;20079;-70
2023/05/22 04:15:40;;;;;;;32.53;24.55;;;;;;;;;;5048642;28;20064;-70
2023/05/22 04:18:06;;;;;;;31.80;24.55;;;;;;;;;;5050039;28;20200;-70
2023/05/22 04:20:33;;;;;;;33.78;23.88;;;;;;;;;;5049354;28;20047;-70
2023/05/22 04:23:00;;;;;;;35.15;22.63;;;;;;;;;;5046412;28;20117;-70
2023/05/22 04:25:26;;;;;;;29.80;23.88;;;;;;;;;;5051250;28;20332;-71
2023/05/22 04:27:52;;;;;;;29.20;23.17;;;;;;;;;;5047755;28;20040;-71
2023/05/22 04:30:18;;;;;;;31.38;23.92;;;;;;;;;;5048714;28;20040;-70
2023/05/22 04:32:44;;;;;;;34.47;24.63;;;;;;;;;;5041307;28;20057;-70
2023/05/22 04:35:11;;;;;;;28.25;21.98;;;;;;;;;;5050967;28;20048;-70
2023/05/22 04:37:39;;;;;;;31.92;24.70;;;;;;;;;;5026495;28;20044;-70
2023/05/22 04:40:08;;;;;;;31.48;25.63;;;;;;;;;;5038332;28;20048;-70
2023/05/22 04:42:36;;;;;;;36.42;24.40;;;;;;;;;;5044430;28;20415;-71
2023/05/22 04:45:02;;;;;;;33.33;24.20;;;;;;;;;;5049762;28;20048;-70
2023/05/22 04:47:30;;;;;;;32.00;23.77;;;;;;;;;;5043683;28;20052;-70
2023/05/22 04:49:57;;;;;;;34.17;23.13;;;;;;;;;;5047391;28;20051;-70
2023/05/22 04:52:23;;;;;;;31.42;24.67;;;;;;;;;;5048136;28;20167;-71
2023/05/22 04:54:51;;;;;;;27.60;22.27;;;;;;;;;;5047770;28;20036;-70
2023/05/22 04:57:17;;;;;;;26.67;21.10;;;;;;;;;;5046492;28;20045;-70
2023/05/22 04:59:44;;;;;;;28.98;20.25;;;;;;;;;;5033379;28;20486;-70
2023/05/22 05:02:10;;;;;;;24.15;16.98;;;;;;;;;;5052984;28;20041;-69
2023/05/22 05:04:37;;;;;;;26.42;18.67;;;;;;;;;;5050284;28;20440;-69
2023/05/22 05:07:03;;;;;;;17.70;14.15;;;;;;;;;;5046889;28;20037;-69
2023/05/22 05:09:30;;;;;;;21.08;14.82;;;;;;;;;;5051449;28;20072;-69
2023/05/22 05:11:57;;;;;;;20.02;11.93;;;;;;;;;;5056483;28;20049;-70
2023/05/22 05:14:23;;;;;;;26.63;13.65;;;;;;;;;;5047962;28;20122;-69
2023/05/22 05:16:52;;;;;;;22.20;12.43;;;;;;;;;;5043408;28;20049;-70
2023/05/22 05:19:21;;;;;;;23.10;13.23;;;;;;;;;;5047129;28;20473;-70
2023/05/22 05:21:48;;;;;;;24.50;12.27;;;;;;;;;;5051324;28;20105;-70
2023/05/22 05:24:17;;;;;;;26.25;10.68;;;;;;;;;;5049816;28;20051;-70
2023/05/22 05:26:44;;;;;;;21.63;11.00;;;;;;;;;;5041857;28;20106;-69
2023/05/22 05:29:11;;;;;;;15.20;10.60;;;;;;;;;;5049883;28;20033;-69
2023/05/22 05:31:38;;;;;;;19.10;10.43;;;;;;;;;;5051067;28;20048;-70
2023/05/22 05:34:04;;;;;;;21.52;10.38;;;;;;;;;;5050109;28;20347;-70
2023/05/22 05:36:30;;;;;;;16.65;10.02;;;;;;;;;;5052224;28;20457;-70
2023/05/22 05:38:57;;;;;;;19.25;10.80;;;;;;;;;;5050657;28;20053;-70
2023/05/22 05:41:25;;;;;;;26.33;9.70;;;;;;;;;;5044515;28;20060;-70
2023/05/22 05:43:51;;;;;;;14.70;9.90;;;;;;;;;;5053699;28;20526;-70
2023/05/22 05:46:18;;;;;;;15.45;9.43;;;;;;;;;;5053557;28;20072;-69
2023/05/22 05:48:44;;;;;;;18.33;10.63;;;;;;;;;;5052294;28;20376;-70
2023/05/22 05:51:10;;;;;;;16.63;10.35;;;;;;;;;;5046115;28;20084;-71
2023/05/22 05:53:36;;;;;;;20.95;11.73;;;;;;;;;;5051605;28;20091;-70
2023/05/22 05:56:03;;;;;;;15.25;10.45;;;;;;;;;;5055485;28;20517;-70
2023/05/22 05:58:30;;;;;;;16.80;8.77;;;;;;;;;;5055767;28;20486;-70
2023/05/22 06:00:56;;;;;;;22.52;11.02;;;;;;;;;;5042944;28;20060;-70
2023/05/22 06:03:24;;;;;;;18.85;10.50;;;;;;;;;;5054599;28;20359;-71
2023/05/22 06:05:50;;;;;;;21.30;10.05;;;;;;;;;;5046402;28;20111;-69
2023/05/22 06:08:18;;;;;;;14.32;8.95;;;;;;;;;;5049589;28;20033;-70
2023/05/22 06:10:46;;;;;;;18.85;9.95;;;;;;;;;;5047442;28;20406;-69
2023/05/22 06:13:12;;;;;;;17.63;10.07;;;;;;;;;;5053232;28;20041;-70
2023/05/22 06:15:38;;;;;;;21.10;10.68;;;;;;;;;;5050129;28;20048;-71
2023/05/22 06:18:05;;;;;;;20.73;10.25;;;;;;;;;;5063786;28;20111;-69
2023/05/22 06:20:31;;;;;;;17.63;9.88;;;;;;;;;;5052369;28;20498;-69
2023/05/22 06:22:58;;;;;;;15.43;9.50;;;;;;;;;;5051104;28;20515;-70
2023/05/22 06:25:25;;;;;;;16.63;9.50;;;;;;;;;;5053749;28;20120;-70
2023/05/22 06:27:51;;;;;;;17.27;9.30;;;;;;;;;;5052031;28;20343;-71
2023/05/22 06:30:18;;;;;;;19.73;9.55;;;;;;;;;;5039233;28;20045;-71
2023/05/22 06:32:44;;;;;;;14.95;9.25;;;;;;;;;;5051992;28;20495;-70
2023/05/22 06:35:10;;;;;;;20.38;9.93;;;;;;;;;;5051025;28;20056;-71
2023/05/22 06:37:37;;;;;;;13.50;8.65;;;;;;;;;;5049957;28;20080;-70
2023/05/22 06:40:04;;;;;;;14.55;9.93;;;;;;;;;;5050971;28;20215;-70
2023/05/22 06:42:31;;;;;;;16.98;10.05;;;;;;;;;;5048864;28;20061;-71
2023/05/22 06:44:58;;;;;;;16.13;10.07;;;;;;;;;;5053533;28;20397;-70
2023/05/22 06:47:24;;;;;;;19.10;10.27;;;;;;;;;;5044972;28;20077;-70
2023/05/22 06:49:50;;;;;;;15.65;10.13;;;;;;;;;;5046557;28;20507;-70
2023/05/22 06:52:16;;;;;;;21.58;10.45;;;;;;;;;;5040717;28;20049;-70
2023/05/22 06:54:43;;;;;;;15.93;10.43;;;;;;;;;;5051608;28;20037;-70
2023/05/22 06:57:10;;;;;;;17.30;10.18;;;;;;;;;;5051535;28;20041;-71
2023/05/22 06:59:36;;;;;;;18.67;10.52;;;;;;;;;;5051573;28;20116;-70
2023/05/22 07:02:02;;;;;;;18.60;9.30;;;;;;;;;;5050769;28;20118;-70
2023/05/22 07:04:28;;;;;;;15.32;8.45;;;;;;;;;;5055576;28;20033;-71
2023/05/22 07:06:54;;;;;;;12.18;8.50;;;;;;;;;;5051059;28;20162;-70
2023/05/22 07:09:20;;;;;;;20.65;10.10;;;;;;;;;;5050366;28;20033;-71
2023/05/22 07:11:47;;;;;;;12.30;9.13;;;;;;;;;;5049749;28;20044;-71
2023/05/22 07:14:13;;;;;;;14.23;9.63;;;;;;;;;;5050453;28;20045;-71
2023/05/22 07:16:39;;;;;;;12.93;9.23;;;;;;;;;;5051538;28;20427;-71
2023/05/22 07:19:07;;;;;;;13.75;8.23;;;;;;;;;;5032897;28;20064;-71
2023/05/22 07:21:34;;;;;;;14.35;8.82;;;;;;;;;;5048908;28;20095;-70
2023/05/22 07:24:06;;;;;;;18.20;9.52;;;;;;;;;;5049501;28;20102;-70
2023/05/22 07:26:33;;;;;;;21.13;10.55;;;;;;;;;;5050236;28;20044;-70
2023/05/22 07:29:00;;;;;;;14.00;8.20;;;;;;;;;;5050086;28;20245;-70
2023/05/22 07:31:26;;;;;;;18.45;10.18;;;;;;;;;;5049724;28;20036;-70
2023/05/22 07:33:52;;;;;;;17.35;9.65;;;;;;;;;;5047693;28;20406;-70
2023/05/22 07:36:19;;;;;;;13.60;9.43;;;;;;;;;;5044725;28;20491;-71
2023/05/22 07:38:45;;;;;;;16.50;9.27;;;;;;;;;;5056872;28;20205;-70
2023/05/22 07:41:12;;;;;;;11.98;8.38;;;;;;;;;;5050622;28;20033;-71
2023/05/22 07:43:38;;;;;;;12.85;8.23;;;;;;;;;;5056421;28;20402;-71
2023/05/22 07:46:05;;;;;;;14.05;8.38;;;;;;;;;;5049557;28;20084;-70
2023/05/22 07:48:31;;;;;;;18.58;9.23;;;;;;;;;;5054907;28;20081;-70
2023/05/22 07:50:57;;;;;;;14.18;7.88;;;;;;;;;;5059952;28;20392;-70
2023/05/22 07:53:23;;;;;;;10.50;8.10;;;;;;;;;;5049793;28;20486;-71
2023/05/22 07:55:49;;;;;;;11.13;7.18;;;;;;;;;;5052274;28;20044;-71
2023/05/22 07:58:16;;;;;;;13.20;7.80;;;;;;;;;;5053751;28;20517;-71
2023/05/22 08:00:42;;;;;;;10.48;7.97;;;;;;;;;;5047818;28;20049;-71
2023/05/22 08:03:08;;;;;;;9.90;6.88;;;;;;;;;;5050482;28;20037;-71
2023/05/22 08:05:34;;;;;;;13.65;6.32;;;;;;;;;;5051275;28;20506;-71
2023/05/22 08:08:01;;;;;;;10.85;6.63;;;;;;;;;;5050583;28;20052;-70
2023/05/22 08:10:28;;;;;;;10.77;6.05;;;;;;;;;;5043151;28;20572;-70
2023/05/22 08:12:54;;;;;;;15.75;6.15;;;;;;;;;;5045121;28;20353;-70
2023/05/22 08:15:20;;;;;;;8.95;5.28;;;;;;;;;;5041354;28;20132;-70
2023/05/22 08:17:46;;;;;;;8.43;5.68;;;;;;;;;;5044551;28;20364;-70
2023/05/22 08:20:12;;;;;;;9.82;5.45;;;;;;;;;;5043471;28;20061;-69
2023/05/22 08:22:40;;;;;;;8.02;5.45;;;;;;;;;;5044235;28;20045;-69
2023/05/22 08:25:06;;;;;;;8.52;5.13;;;;;;;;;;5047560;28;20116;-69
2023/05/22 08:27:32;;;;;;;6.82;4.57;;;;;;;;;;5047378;28;20045;-69
2023/05/22 08:29:58;;;;;;;12.00;5.63;;;;;;;;;;5049178;28;20142;-70
2023/05/22 08:32:24;;;;;;;9.98;4.35;;;;;;;;;;5039040;28;20032;-70
2023/05/22 08:34:50;;;;;;;7.78;4.95;;;;;;;;;;5053054;28;20044;-69
2023/05/22 08:37:17;;;;;;;6.72;4.80;;;;;;;;;;5046615;28;20037;-69
2023/05/22 08:39:43;;;;;;;7.85;5.22;;;;;;;;;;5032177;28;20048;-70
2023/05/22 08:42:09;;;;;;;10.85;4.68;;;;;;;;;;5040880;28;20045;-69
2023/05/22 08:44:36;;;;;;;6.05;4.30;;;;;;;;;;5046607;28;20140;-69
2023/05/22 08:47:08;;;;;;;8.65;4.75;;;;;;;;;;5048926;28;20146;-69
2023/05/22 08:49:35;;;;;;;8.38;5.15;;;;;;;;;;5047018;28;20144;-69
2023/05/22 08:52:07;;;;;;;5.78;3.45;;;;;;;;;;5047300;28;20036;-70
2023/05/22 08:54:36;;;;;;;6.22;4.20;;;;;;;;;;5056384;28;20040;-69
2023/05/22 08:57:02;;;;;;;7.35;5.28;;;;;;;;;;5036039;28;20080;-70
2023/05/22 08:59:29;;;;;;;7.38;4.70;;;;;;;;;;5035198;28;20120;-69
2023/05/22 09:01:56;;;;;;;8.65;4.72;;;;;;;;;;5046488;28;20045;-70
2023/05/22 09:04:24;;;;;;;7.13;5.50;;;;;;;;;;5055952;28;20053;-70
2023/05/22 09:06:50;;;;;;;8.13;5.15;;;;;;;;;;5047937;28;20041;-69
2023/05/22 09:09:17;;;;;;;9.52;6.18;;;;;;;;;;5037362;28;20099;-70
2023/05/22 09:11:43;;;;;;;12.00;6.82;;;;;;;;;;5045566;28;20633;-70
2023/05/22 09:14:10;;;;;;;7.10;5.70;;;;;;;;;;5047592;28;20079;-70
2023/05/22 09:16:46;;;;;;;8.93;6.50;;;;;;;;;;5042474;28;20427;-70
2023/05/22 09:19:16;;;;;;;10.65;7.25;;;;;;;;;;5043924;28;20116;-70
2023/05/22 09:21:46;;;;;;;7.82;6.32;;;;;;;;;;5039114;28;20148;-70
2023/05/22 09:24:12;;;;;;;9.63;6.68;;;;;;;;;;5042566;28;20044;-70
2023/05/22 09:26:39;;;;;;;9.20;7.53;;;;;;;;;;5046126;28;20037;-70
2023/05/22 09:29:06;;;;;;;11.77;7.70;;;;;;;;;;5041103;28;20401;-70
2023/05/22 09:31:37;;;;;;;9.88;6.95;;;;;;;;;;5048772;28;20112;-70
2023/05/22 09:34:06;;;;;;;10.05;7.40;;;;;;;;;;5050724;28;20076;-69
2023/05/22 09:36:33;;;;;;;10.95;6.93;;;;;;;;;;5051868;28;20541;-70
2023/05/22 09:39:00;;;;;;;14.50;9.05;;;;;;;;;;5044970;28;20044;-70
2023/05/22 09:41:29;;;;;;;11.00;7.90;;;;;;;;;;5044715;28;20098;-69
2023/05/22 09:43:55;;;;;;;11.48;8.80;;;;;;;;;;5026963;28;20045;-70
2023/05/22 09:46:21;;;;;;;12.50;8.25;;;;;;;;;;5050766;28;20033;-70
2023/05/22 09:48:51;;;;;;;10.38;7.95;;;;;;;;;;5051202;28;20134;-70
2023/05/22 09:51:22;;;;;;;12.30;8.25;;;;;;;;;;5067633;28;20056;-70
2023/05/22 09:53:50;;;;;;;11.63;7.82;;;;;;;;;;5049843;28;20053;-69
2023/05/22 09:56:18;;;;;;;10.63;8.65;;;;;;;;;;5056744;28;20052;-70
2023/05/22 09:58:45;;;;;;;11.23;8.73;;;;;;;;;;5048592;28;20058;-70
2023/05/22 10:01:12;;;;;;;13.35;9.18;;;;;;;;;;5052492;28;20052;-69
2023/05/22 10:03:40;;;;;;;12.77;9.25;;;;;;;;;;5052113;28;20130;-69
2023/05/22 10:06:08;;;;;;;13.05;9.15;;;;;;;;;;5052573;28;20041;-69
2023/05/22 10:08:40;;;;;;;11.32;10.13;;;;;;;;;;5053124;28;20452;-69
2023/05/22 10:11:07;;;;;;;13.32;10.32;;;;;;;;;;5038753;28;20036;-69
2023/05/22 10:13:34;;;;;;;12.52;9.57;;;;;;;;;;5051386;28;20124;-69
2023/05/22 10:16:01;;;;;;;10.75;8.85;;;;;;;;;;5053911;28;20116;-69
2023/05/22 10:18:28;;;;;;;12.50;10.10;;;;;;;;;;5023118;28;20144;-69
2023/05/22 10:20:54;;;;;;;18.17;10.20;;;;;;;;;;5047195;28;20568;-69
2023/05/22 10:23:21;;;;;;;12.60;9.40;;;;;;;;;;5041754;28;20498;-70
2023/05/22 10:25:48;;;;;;;12.32;9.75;;;;;;;;;;5060147;28;20067;-70
2023/05/22 10:28:18;;;;;;;14.18;10.60;;;;;;;;;;5058795;28;20076;-70
2023/05/22 10:30:44;;;;;;;12.93;10.32;;;;;;;;;;5059028;28;20063;-70
2023/05/22 10:33:29;;;;;;;11.30;9.85;;;;;;;;;;5048807;28;20094;-70
2023/05/22 10:36:07;;;;;;;13.13;9.90;;;;;;;;;;5035495;28;20156;-70
2023/05/22 10:38:33;;;;;;;13.05;9.52;;;;;;;;;;5050197;28;20111;-70
2023/05/22 10:40:59;;;;;;;15.48;11.68;;;;;;;;;;5043248;28;20040;-70
2023/05/22 10:43:30;;;;;;;11.45;9.38;;;;;;;;;;5049776;28;20090;-69
2023/05/22 10:46:03;;;;;;;11.57;10.30;;;;;;;;;;5043417;28;20112;-69
2023/05/22 10:48:29;;;;;;;;;;;;;;;;;;5050134;28;20489;-69
2023/05/22 10:50:55;;;;;;;13.40;9.80;;;;;;;;;;5052738;28;19917;-69
2023/05/22 10:53:28;;;;;;;11.88;10.38;;;;;;;;;;5050205;28;20120;-69
2023/05/22 10:55:54;;;;;;;;;;;;;;;;;;5043953;28;20045;-69
2023/05/22 10:58:28;;;;;;;12.98;10.48;;;;;;;;;;5045184;28;19916;-69
2023/05/22 11:01:13;;;;;;;13.63;9.68;;;;;;;;;;5042899;28;20354;-69
2023/05/22 11:03:58;;;;;;;14.77;11.35;;;;;;;;;;5056777;28;20079;-70
2023/05/22 11:06:30;;;;;;;11.90;8.95;;;;;;;;;;5048333;28;20033;-69
2023/05/22 11:08:57;;;;;;;15.77;11.88;;;;;;;;;;5045552;28;20033;-69
2023/05/22 11:11:26;;;;;;;12.73;10.90;;;;;;;;;;5055139;28;20544;-69
2023/05/22 11:14:02;;;;;;;15.05;12.20;;;;;;;;;;5046136;28;20462;-69
2023/05/22 11:16:31;;;;;;;12.63;11.18;;;;;;;;;;5041954;28;20079;-69
2023/05/22 11:19:06;;;;;;;13.57;11.20;;;;;;;;;;5047425;28;20086;-70
2023/05/22 11:21:34;;;;;;;13.65;10.25;;;;;;;;;;5053350;28;20053;-70
2023/05/22 11:24:00;;;;;;;12.10;10.85;;;;;;;;;;5044704;28;20252;-70
2023/05/22 11:26:27;;;;;;;15.77;11.15;;;;;;;;;;5044099;28;20138;-69
2023/05/22 11:28:53;;;;;;;16.45;11.15;;;;;;;;;;5054860;28;20430;-69
2023/05/22 11:31:21;;;;;;;12.35;10.25;;;;;;;;;;5057041;28;20123;-69
2023/05/22 11:33:48;;;;;;;12.15;10.18;;;;;;;;;;5049160;28;20045;-69
2023/05/22 11:36:15;;;;;;;16.40;11.05;;;;;;;;;;5056434;28;20072;-70
2023/05/22 11:38:42;;;;;;;17.10;10.57;;;;;;;;;;5053051;28;20091;-70
2023/05/22 11:41:09;;;;;;;13.15;10.00;;;;;;;;;;5057798;28;20120;-70
2023/05/22 11:43:35;;;;;;;21.25;11.23;;;;;;;;;;5050702;28;20106;-69
2023/05/22 11:46:06;;;;;;;15.88;10.48;;;;;;;;;;5047073;28;20033;-69
2023/05/22 11:48:33;;;;;;;13.77;11.30;;;;;;;;;;5054527;28;20045;-69
2023/05/22 11:50:59;;;;;;;15.13;10.55;;;;;;;;;;5059101;28;20059;-69
2023/05/22 11:53:26;;;;;;;13.98;11.30;;;;;;;;;;5048567;28;20047;-69
2023/05/22 11:55:52;;;;;;;18.25;10.68;;;;;;;;;;5050438;28;20076;-69
2023/05/22 11:58:21;;;;;;;14.13;11.10;;;;;;;;;;5047348;28;20052;-69
2023/05/22 12:00:47;;;;;;;16.42;11.63;;;;;;;;;;5046574;28;20041;-69
2023/05/22 12:03:14;;;;;;;15.93;11.38;;;;;;;;;;5047934;28;20399;-69
2023/05/22 12:05:40;;;;;;;15.73;11.20;;;;;;;;;;5048238;28;20049;-70
2023/05/22 12:08:06;;;;;;;16.50;11.20;;;;;;;;;;5048236;28;20494;-69
2023/05/22 12:10:32;;;;;;;14.65;11.55;;;;;;;;;;5039296;28;20080;-69
2023/05/22 12:12:58;;;;;;;16.10;10.98;;;;;;;;;;5045208;28;20052;-69
2023/05/22 12:15:24;;;;;;;13.98;10.57;;;20.00;99.90;;;;;;5047524;28;20047;-69
2023/05/22 12:17:54;;;;;;;15.32;11.73;;;20.80;99.90;;;;;;5049830;28;20474;-70
2023/05/22 12:20:20;;;;;;;18.42;11.95;;;20.80;99.90;;;;;;5036566;28;20041;-70
2023/05/22 12:22:47;;;;;;;13.52;10.02;;;20.80;99.90;;;;;;5051745;28;20045;-69
2023/05/22 12:25:18;;;;;;;15.07;11.30;;;20.80;99.90;;;;;;5049324;28;20033;-69
2023/05/22 12:27:45;;;;;;;16.45;12.57;;;20.90;99.90;;;;;;5044452;28;20530;-69
2023/05/22 12:30:14;;;;;;;14.82;12.05;;;20.90;99.90;;;;;;5045822;28;20025;-69
2023/05/22 12:32:46;;;;;;;20.80;12.27;;;20.90;99.90;;;;;;5040377;28;20098;-69
2023/05/22 12:35:16;;;;;;;15.32;10.80;;;20.90;99.90;;;;;;5024689;28;20090;-69
2023/05/22 12:37:51;;;;;;;19.70;10.52;;;20.90;99.90;;;;;;5044582;28;20110;-69
2023/05/22 12:40:17;;;;;;;16.48;11.55;;;20.90;99.90;;;;;;5046740;28;20047;-69
2023/05/22 12:42:43;;;;;;;18.10;12.60;;;20.90;99.90;;;;;;5047589;28;20049;-69
2023/05/22 12:45:11;;;;;;;15.07;13.02;;;20.90;99.90;;;;;;5046725;28;20116;-69
2023/05/22 12:47:36;;;;;;;16.23;10.73;;;20.90;99.90;;;;;;5055590;28;20075;-69
2023/05/22 12:50:02;;;;;;;14.52;11.15;;;20.90;99.90;;;;;;5044018;28;20494;-69
2023/05/22 12:52:28;;;;;;;15.82;12.45;;;20.90;99.90;;;;;;5052582;28;20403;-69
2023/05/22 12:54:54;;;;;;;15.30;10.98;;;20.90;99.90;;;;;;5047388;28;20041;-69
2023/05/22 12:57:19;;;;;;;14.57;10.85;;;20.90;99.90;;;;;;5046776;28;20104;-69
2023/05/22 12:59:45;;;;;;;15.43;11.10;;;20.90;99.90;;;;;;5044523;28;20129;-69
2023/05/22 13:02:11;;;;;;;16.15;11.63;;;20.90;99.90;;;;;;5052111;28;20418;-69
2023/05/22 13:04:37;;;;;;;17.27;10.75;;;20.90;99.90;;;;;;5047231;28;20043;-71
2023/05/22 13:07:03;;;;;;;14.50;11.05;;;20.90;99.90;;;;;;5046963;28;20045;-70
2023/05/22 13:09:28;;;;;;;13.73;10.05;;;21.00;99.90;;;;;;5041414;28;20029;-70
2023/05/22 13:11:55;;;;;;;19.67;11.70;;;21.00;99.90;;;;;;5043262;28;20048;-69
2023/05/22 13:14:23;;;;;;;13.73;11.15;;;21.10;99.90;;;;;;5048058;28;20043;-69
2023/05/22 13:16:49;;;;;;;17.90;11.82;;;21.10;99.90;;;;;;5037402;28;20056;-68
2023/05/22 13:19:15;;;;;;;13.25;10.15;;;21.10;99.90;;;;;;5036102;28;20036;-69
2023/05/22 13:21:42;;;;;;;15.23;10.68;;;21.10;99.90;;;;;;5050803;28;20044;-69
2023/05/22 13:24:08;;;;;;;13.02;10.23;;;21.10;99.90;;;;;;5043252;28;20411;-69
2023/05/22 13:26:34;;;;;;;11.93;10.07;;;21.20;99.90;;;;;;5050278;28;20041;-69
2023/05/22 13:28:59;;;;;;;13.43;8.80;;;21.20;99.90;;;;;;5050140;28;20064;-69
2023/05/22 13:31:25;;;;;;;16.88;10.88;;;21.20;99.90;;;;;;5051877;28;20037;-69
2023/05/22 13:33:51;;;;;;;18.75;10.38;;;21.20;99.90;;;;;;5050379;28;20291;-69
2023/05/22 13:36:17;;;;;;;15.90;11.30;;;21.20;99.90;;;;;;5052087;28;20048;-69
2023/05/22 13:38:42;;;;;;;17.27;10.90;;;21.20;99.90;;;;;;5050717;28;20036;-69
2023/05/22 13:41:08;;;;;;;17.63;10.55;;;21.20;99.90;;;;;;5050625;28;20102;-69
2023/05/22 13:43:34;;;;;;;13.27;10.40;;;21.20;99.90;;;;;;5047905;28;20448;-69
2023/05/22 13:46:00;;;;;;;15.40;11.18;;;21.20;99.90;;;;;;5048638;28;20049;-69
2023/05/22 13:48:26;;;;;;;15.02;11.02;;;21.20;99.90;;;;;;5049040;28;20090;-69
2023/05/22 13:50:51;;;;;;;15.68;10.85;;;21.20;99.90;;;;;;5055721;28;20052;-69
2023/05/22 13:53:17;;;;;;;15.07;10.43;;;21.20;99.90;;;;;;5049400;28;20045;-69
2023/05/22 13:55:43;;;;;;;14.25;10.15;;;21.30;99.90;;;;;;5053798;28;20558;-69
2023/05/22 13:58:09;;;;;;;12.60;9.98;;;21.30;99.90;;;;;;5058141;28;20040;-69
2023/05/22 14:00:35;;;;;;;12.40;10.60;;;21.30;99.90;;;;;;5044287;28;20141;-68
2023/05/22 14:03:01;;;;;;;12.65;9.05;;;21.30;99.90;;;;;;5052922;28;20431;-69
2023/05/22 14:05:27;;;;;;;14.60;9.68;;;21.30;99.90;;;;;;5052964;28;20110;-69
2023/05/22 14:07:54;;;;;;;18.05;10.57;;;21.30;99.90;;;;;;5047806;28;20202;-69